| Date | Time | Temp. (oF) | Dew Point (oF) | Rel. Hum. (%) | Press. (in.) | Wind Dir. | Wind Speed (mph) | Hourly Rainfall (in.) |
|
|---|---|---|---|---|---|---|---|---|---|
| 1 | 04/27 | 00:00 | 48 | 29 | 49 | 29.73 | N | 2 | 0.00 |
| 2 | 04/26 | 23:00 | 50 | 29 | 46 | 29.72 | N | 0 | 0.00 |
| 3 | 04/26 | 22:00 | 52 | 30 | 43 | 29.70 | N | 7 | 0.00 |
| 4 | 04/26 | 21:00 | 54 | 30 | 41 | 29.67 | N | 3 | 0.00 |
| 5 | 04/26 | 20:00 | 57 | 30 | 37 | 29.66 | NE | 4 | 0.00 |
| 6 | 04/26 | 19:00 | 59 | 30 | 34 | 29.64 | WNW | 5 | 0.00 |
| 7 | 04/26 | 18:00 | 60 | 30 | 33 | 29.63 | NE | 5 | 0.00 |
| 8 | 04/26 | 17:00 | 61 | 31 | 33 | 29.63 | N | 6 | 0.00 |
| 9 | 04/26 | 16:00 | 60 | 31 | 34 | 29.64 | SW | 6 | 0.00 |
| 10 | 04/26 | 15:00 | 60 | 32 | 35 | 29.65 | NNE | 3 | 0.00 |
| 11 | 04/26 | 14:00 | 57 | 30 | 37 | 29.67 | NE | 8 | 0.00 |
| 12 | 04/26 | 13:00 | 57 | 32 | 40 | 29.68 | NE | 6 | 0.00 |
| 13 | 04/26 | 12:00 | 56 | 34 | 45 | 29.69 | NNW | 2 | 0.00 |
| 14 | 04/26 | 11:00 | 53 | 33 | 48 | 29.70 | NE | 3 | 0.00 |
| 15 | 04/26 | 10:00 | 51 | 32 | 49 | 29.70 | ENE | 4 | 0.00 |
| 16 | 04/26 | 09:00 | 48 | 31 | 52 | 29.69 | NNE | 6 | 0.00 |
| 17 | 04/26 | 08:00 | 44 | 31 | 61 | 29.69 | N | 3 | 0.00 |
| 18 | 04/26 | 07:00 | 39 | 32 | 78 | 29.68 | S | 0 | 0.00 |
| 19 | 04/26 | 06:00 | 40 | 33 | 76 | 29.67 | N | 0 | 0.00 |
| 20 | 04/26 | 05:00 | 40 | 32 | 73 | 29.68 | WNW | 1 | 0.00 |
| 21 | 04/26 | 04:00 | 40 | 32 | 73 | 29.67 | SSW | 0 | 0.00 |
| 22 | 04/26 | 03:00 | 41 | 31 | 68 | 29.66 | NNE | 1 | 0.00 |
| 23 | 04/26 | 02:00 | 41 | 28 | 61 | 29.67 | SW | 2 | 0.00 |
| 24 | 04/26 | 01:00 | 44 | 28 | 55 | 29.68 | WNW | 2 | 0.00 |